Time;durP1;ratioP1;P1;durP2;ratioP2;P2;SDS_P1;SDS_P2;PMS_P1;PMS_P2;Temp;Humidity;BMP_temperature;BMP_pressure;BME280_temperature;BME280_humidity;BME280_pressure;Samples;Min_cycle;Max_cycle;Signal;HPM_P1;HPM_P2
2021/09/23 00:01:31;;;;;;;18.70;10.30;;;;;;;9.75;72.53;99086.52;27210;1216;3026379;-70
2021/09/23 00:04:21;;;;;;;13.70;7.90;;;;;;;9.73;72.96;99084.58;27218;1216;3055170;-71
2021/09/23 00:06:50;;;;;;;18.00;7.90;;;;;;;10.27;71.95;99081.45;27228;1216;3055432;-69
2021/09/23 00:09:19;;;;;;;12.90;6.60;;;;;;;10.78;70.17;99079.39;27221;1208;3026594;-68
2021/09/23 00:12:08;;;;;;;16.40;8.60;;;;;;;10.86;69.55;99080.04;27233;1217;3055043;-66
2021/09/23 00:14:37;;;;;;;15.30;9.20;;;;;;;10.75;69.89;99082.19;27182;1216;3026230;-64
2021/09/23 00:17:15;;;;;;;11.80;8.00;;;;;;;10.55;70.52;99082.15;27255;1216;3054501;-67
2021/09/23 00:19:44;;;;;;;13.80;8.50;;;;;;;10.45;70.53;99080.36;27264;1216;3026106;-65
2021/09/23 00:22:23;;;;;;;13.90;8.60;;;;;;;10.32;71.10;99082.20;27241;1216;3051029;-68
2021/09/23 00:24:51;;;;;;;13.30;7.00;;;;;;;10.12;72.15;99083.64;27267;1216;3027937;-68
2021/09/23 00:27:21;;;;;;;13.20;7.30;;;;;;;10.50;71.66;99078.58;27230;1216;3071092;-64
2021/09/23 00:29:50;;;;;;;12.80;7.90;;;;;;;11.10;70.06;99075.59;27274;1216;3026051;-65
2021/09/23 00:32:19;;;;;;;19.40;8.70;;;;;;;11.20;69.18;99082.49;27258;1216;3049389;-67
2021/09/23 00:34:48;;;;;;;13.30;8.00;;;;;;;11.06;69.25;99083.60;27200;1216;3026289;-66
2021/09/23 00:37:17;;;;;;;13.20;8.10;;;;;;;10.83;69.55;99084.83;27212;1216;3051917;-68
2021/09/23 00:39:46;;;;;;;12.90;7.20;;;;;;;10.52;70.41;99088.46;27226;1209;3026353;-66
2021/09/23 00:42:16;;;;;;;10.70;6.40;;;;;;;10.26;70.88;99082.77;27251;1216;3049637;-71
2021/09/23 00:44:59;;;;;;;11.10;6.70;;;;;;;10.01;71.94;99085.61;27259;1216;3056555;-68
2021/09/23 00:47:48;;;;;;;9.20;5.00;;;;;;;9.90;72.33;99084.89;27267;1216;3051504;-69
2021/09/23 00:50:20;;;;;;;9.50;4.40;;;;;;;10.50;70.93;99087.33;27189;1216;3026440;-64
2021/09/23 00:52:50;;;;;;;8.80;5.10;;;;;;;11.10;69.13;99088.23;27229;1216;3026295;-67
2021/09/23 00:55:21;;;;;;;9.10;5.50;;;;;;;11.24;68.60;99084.84;27270;1216;3026948;-66
2021/09/23 00:57:51;;;;;;;6.30;4.90;;;;;;;11.09;68.44;99080.10;27270;1216;3026209;-70
2021/09/23 01:00:22;;;;;;;7.70;5.10;;;;;;;10.85;68.79;99085.88;27221;1216;3026689;-69
2021/09/23 01:03:14;;;;;;;10.20;5.50;;;;;;;10.64;69.41;99081.67;27234;1216;3051664;-67
2021/09/23 01:06:02;;;;;;;7.50;5.30;;;;;;;10.37;70.34;99081.39;27249;1216;3051998;-64
2021/09/23 01:08:33;;;;;;;9.10;5.80;;;;;;;10.21;70.78;99082.23;27234;1216;3025982;-70
2021/09/23 01:11:02;;;;;;;8.50;4.50;;;;;;;10.11;71.28;99080.77;27221;1216;3026508;-64
2021/09/23 01:13:55;;;;;;;5.90;4.00;;;;;;;10.79;69.89;99078.74;27284;1218;3053303;-66
2021/09/23 01:16:47;;;;;;;9.00;5.00;;;;;;;11.19;68.35;99080.95;27252;1216;3054029;-69
2021/09/23 01:19:38;;;;;;;9.30;5.30;;;;;;;11.09;68.35;99075.30;27188;1216;3070413;-64
2021/09/23 01:22:07;;;;;;;6.70;5.10;;;;;;;10.89;68.92;99071.79;27226;1217;3026097;-70
2021/09/23 01:25:10;;;;;;;7.90;6.00;;;;;;;10.66;69.64;99071.91;27246;1216;3054355;-67
2021/09/23 01:27:39;;;;;;;11.10;6.00;;;;;;;10.50;69.89;99066.88;27269;1216;3027961;-68
2021/09/23 01:30:11;;;;;;;10.40;6.20;;;;;;;10.35;70.49;99060.84;27215;1217;3025951;-67
2021/09/23 01:32:45;;;;;;;8.40;6.40;;;;;;;10.16;70.86;99061.91;27241;1216;3050851;-68
2021/09/23 01:35:15;;;;;;;6.50;4.70;;;;;;;10.01;71.58;99064.28;27283;1219;3025732;-65
2021/09/23 01:37:45;;;;;;;7.60;4.40;;;;;;;10.47;71.01;99063.52;27240;1216;3026332;-66
2021/09/23 01:40:14;;;;;;;7.10;5.10;;;;;;;11.06;69.36;99060.43;27219;1215;3026765;-70
2021/09/23 01:42:45;;;;;;;7.30;6.20;;;;;;;11.11;68.78;99059.41;27246;1218;3026052;-65
2021/09/23 01:45:14;;;;;;;6.70;5.40;;;;;;;10.97;69.04;99058.78;27224;1216;3028006;-69
2021/09/23 01:47:52;;;;;;;9.00;6.10;;;;;;;10.79;69.47;99061.74;27223;1216;3069001;-68
2021/09/23 01:50:24;;;;;;;9.30;6.70;;;;;;;10.60;70.27;99062.18;27195;1216;3027908;-69
2021/09/23 01:53:02;;;;;;;12.20;7.20;;;;;;;10.34;70.88;99061.42;27207;1216;3054269;-67
2021/09/23 01:55:50;;;;;;;9.00;7.00;;;;;;;10.16;70.99;99061.87;27227;1216;3051512;-69
2021/09/23 01:58:20;;;;;;;5.70;5.00;;;;;;;10.05;71.53;99060.64;27201;1216;3026938;-66
2021/09/23 02:00:49;;;;;;;5.80;4.60;;;;;;;10.60;70.51;99058.16;27245;1216;3027450;-68
2021/09/23 02:03:35;;;;;;;7.50;5.40;;;;;;;11.10;68.83;99058.83;27263;1216;3055726;-67
2021/09/23 02:06:12;;;;;;;10.20;5.60;;;;;;;11.13;68.21;99054.73;27238;1216;3053603;-66
2021/09/23 02:09:01;;;;;;;7.30;5.80;;;;;;;10.94;68.77;99050.22;27190;1216;3070937;-66
2021/09/23 02:11:32;;;;;;;8.30;6.30;;;;;;;10.68;69.77;99054.64;27201;1216;3025771;-66
2021/09/23 02:14:05;;;;;;;7.30;6.20;;;;;;;10.45;70.71;99059.15;27198;1216;3026116;-70
2021/09/23 02:16:34;;;;;;;7.20;6.40;;;;;;;10.34;70.79;99059.17;27252;1218;3026334;-69
2021/09/23 02:19:25;;;;;;;8.50;6.50;;;;;;;10.23;71.10;99063.17;27238;1218;3058750;-68
2021/09/23 02:21:54;;;;;;;6.90;5.60;;;;;;;10.14;71.33;99063.08;27229;1216;3027180;-63
2021/09/23 02:24:24;;;;;;;5.60;4.60;;;;;;;10.61;70.50;99064.89;27245;1216;3028813;-68
2021/09/23 02:26:54;;;;;;;7.50;5.40;;;;;;;11.18;68.88;99062.23;27265;1216;3026153;-65
2021/09/23 02:29:23;;;;;;;7.70;5.40;;;;;;;11.36;68.15;99059.40;27215;1216;3029730;-67
2021/09/23 02:31:53;;;;;;;7.20;5.90;;;;;;;11.22;67.94;99059.54;27221;1218;3026309;-65
2021/09/23 02:34:22;;;;;;;7.70;6.30;;;;;;;11.01;68.70;99061.13;27264;1216;3026408;-66
2021/09/23 02:36:55;;;;;;;7.10;6.30;;;;;;;10.79;69.03;99062.10;27252;1216;3068043;-67
2021/09/23 02:39:24;;;;;;;8.30;6.50;;;;;;;10.56;69.64;99059.62;27215;1217;3026482;-69
2021/09/23 02:41:55;;;;;;;8.40;7.10;;;;;;;10.37;70.31;99054.20;27237;1216;3026302;-66
2021/09/23 02:44:44;;;;;;;7.60;6.60;;;;;;;10.17;71.23;99060.78;27241;1216;3051404;-73
2021/09/23 02:47:32;;;;;;;6.40;5.10;;;;;;;10.12;71.74;99059.20;27212;1216;3056409;-66
2021/09/23 02:50:03;;;;;;;5.40;4.60;;;;;;;10.77;70.43;99060.52;27218;1216;3026332;-69
2021/09/23 02:52:32;;;;;;;6.70;5.70;;;;;;;11.27;68.73;99063.04;27248;1209;3025997;-68
2021/09/23 02:55:03;;;;;;;7.50;5.80;;;;;;;11.38;68.22;99065.45;27220;1216;3028035;-67
2021/09/23 02:57:34;;;;;;;6.40;5.60;;;;;;;11.24;68.20;99063.05;27235;1216;3048345;-67
2021/09/23 03:00:06;;;;;;;7.70;6.00;;;;;;;11.02;68.61;99066.85;27266;1216;3026583;-65
2021/09/23 03:02:35;;;;;;;7.70;6.40;;;;;;;10.81;69.29;99070.59;27254;1218;3026730;-67
2021/09/23 03:05:05;;;;;;;7.70;5.90;;;;;;;10.60;70.17;99065.86;27266;1216;3027990;-64
2021/09/23 03:07:34;;;;;;;9.80;6.80;;;;;;;10.42;70.71;99060.22;27249;1217;3025860;-65
2021/09/23 03:10:04;;;;;;;9.00;6.60;;;;;;;10.28;71.03;99056.02;27255;1217;3026364;-67
2021/09/23 03:12:37;;;;;;;6.20;5.20;;;;;;;10.11;71.97;99058.67;27245;1216;3055208;-67
2021/09/23 03:15:12;;;;;;;6.90;4.50;;;;;;;10.60;70.62;99055.70;27422;1216;3058524;-64
2021/09/23 03:18:02;;;;;;;5.90;4.90;;;;;;;11.10;68.93;99054.93;27560;1216;3050302;-64
2021/09/23 03:20:31;;;;;;;6.50;5.10;;;;;;;11.21;69.12;99059.79;27487;1218;3025705;-60
2021/09/23 03:23:20;;;;;;;8.00;5.30;;;;;;;10.99;69.32;99062.20;27345;1216;3051650;-67
2021/09/23 03:25:50;;;;;;;7.90;6.10;;;;;;;10.90;69.14;99066.84;27335;1217;3026050;-63
2021/09/23 03:28:21;;;;;;;7.30;5.60;;;;;;;10.71;69.75;99065.64;27243;1216;3026012;-66
2021/09/23 03:30:50;;;;;;;7.40;6.40;;;;;;;10.48;70.48;99070.86;27244;1216;3026037;-64
2021/09/23 03:33:20;;;;;;;8.00;6.30;;;;;;;10.27;71.38;99067.63;27238;1216;3070338;-69
2021/09/23 03:35:50;;;;;;;5.80;4.30;;;;;;;10.17;71.28;99064.77;27196;1216;3026993;-67
2021/09/23 03:38:20;;;;;;;6.60;4.60;;;;;;;10.62;70.76;99068.73;27223;1216;3026106;-67
2021/09/23 03:41:01;;;;;;;6.60;5.20;;;;;;;11.08;69.32;99068.91;27232;1216;3054932;-65
2021/09/23 03:43:31;;;;;;;8.00;5.90;;;;;;;11.10;68.68;99067.91;27262;1216;3027661;-65
2021/09/23 03:46:04;;;;;;;8.70;5.50;;;;;;;10.88;69.21;99066.23;27226;1216;3026526;-64
2021/09/23 03:48:34;;;;;;;7.20;6.00;;;;;;;10.54;69.75;99067.64;27237;1216;3028050;-69
2021/09/23 03:51:23;;;;;;;7.60;6.10;;;;;;;10.40;70.59;99070.15;27221;1216;3051394;-66
2021/09/23 03:53:52;;;;;;;8.30;6.70;;;;;;;10.12;71.47;99068.28;27230;1216;3026148;-67
2021/09/23 03:56:21;;;;;;;9.10;7.10;;;;;;;9.94;72.25;99069.63;27254;1216;3054962;-69
2021/09/23 03:58:51;;;;;;;6.00;5.00;;;;;;;9.86;72.54;99067.46;27195;1216;3026248;-69
2021/09/23 04:01:20;;;;;;;5.70;4.80;;;;;;;10.38;71.86;99069.56;27196;1216;3026328;-65
2021/09/23 04:03:49;;;;;;;8.20;5.70;;;;;;;10.82;69.94;99072.30;27224;1216;3054345;-66
2021/09/23 04:06:18;;;;;;;6.80;6.20;;;;;;;10.86;69.33;99073.73;27215;1216;3029245;-67
2021/09/23 04:09:07;;;;;;;8.50;6.00;;;;;;;10.57;69.85;99074.10;27256;1216;3049849;-68
2021/09/23 04:11:36;;;;;;;8.40;6.40;;;;;;;10.45;70.53;99077.16;27262;1216;3026187;-66
2021/09/23 04:14:07;;;;;;;8.60;7.20;;;;;;;10.33;70.76;99078.11;27221;1216;3058236;-66
2021/09/23 04:16:57;;;;;;;9.80;8.20;;;;;;;10.21;71.37;99081.48;27230;1215;3048859;-64
2021/09/23 04:19:33;;;;;;;9.60;7.30;;;;;;;10.06;71.78;99080.72;27224;1218;3055034;-64
2021/09/23 04:22:22;;;;;;;6.20;5.20;;;;;;;9.93;72.39;99083.48;27249;1216;3049710;-67
2021/09/23 04:24:52;;;;;;;6.30;5.40;;;;;;;10.46;71.44;99082.36;27252;1216;3025755;-70
2021/09/23 04:27:41;;;;;;;9.60;6.10;;;;;;;11.06;69.89;99077.13;27195;1218;3049210;-70
2021/09/23 04:30:11;;;;;;;8.10;6.10;;;;;;;11.06;69.43;99077.98;27224;1210;3025915;-66
2021/09/23 04:32:41;;;;;;;9.00;7.60;;;;;;;10.91;69.50;99079.55;27281;1216;3025895;-71
2021/09/23 04:35:11;;;;;;;7.60;6.80;;;;;;;10.60;70.16;99081.10;27223;1217;3026486;-69
2021/09/23 04:37:40;;;;;;;9.10;7.50;;;;;;;10.34;70.95;99083.48;27194;1202;3026130;-66
2021/09/23 04:40:11;;;;;;;8.80;7.20;;;;;;;10.00;72.44;99086.03;27227;1216;3052539;-71
2021/09/23 04:42:43;;;;;;;11.50;8.80;;;;;;;9.83;73.36;99085.17;27278;1216;3026807;-69
2021/09/23 04:45:12;;;;;;;8.60;6.10;;;;;;;9.83;73.54;99086.20;27231;1216;3027478;-67
2021/09/23 04:47:46;;;;;;;6.80;6.00;;;;;;;10.47;72.44;99085.96;27236;1216;3052313;-66
2021/09/23 04:50:15;;;;;;;9.40;6.60;;;;;;;10.97;70.48;99086.48;27207;1216;3025954;-65
2021/09/23 04:52:45;;;;;;;6.90;6.20;;;;;;;10.98;69.77;99091.48;27265;1216;3049234;-69
2021/09/23 04:55:15;;;;;;;8.80;7.60;;;;;;;10.79;70.27;99089.30;27276;1217;3028340;-68
2021/09/23 04:58:04;;;;;;;12.20;9.90;;;;;;;10.45;71.39;99083.65;27237;1218;3051369;-66
2021/09/23 05:00:33;;;;;;;11.10;9.00;;;;;;;10.37;71.71;99084.00;27270;1216;3026200;-67
2021/09/23 05:03:03;;;;;;;11.40;8.50;;;;;;;10.25;72.00;99085.95;27259;1209;3026654;-66
2021/09/23 05:05:33;;;;;;;10.30;8.30;;;;;;;10.06;72.36;99087.71;27244;1216;3026181;-73
2021/09/23 05:08:24;;;;;;;7.50;6.10;;;;;;;9.97;73.12;99087.07;27234;1216;3054474;-67
2021/09/23 05:10:52;;;;;;;7.70;5.50;;;;;;;10.59;71.57;99090.55;27217;1216;3026586;-65
2021/09/23 05:13:21;;;;;;;10.90;6.90;;;;;;;11.21;69.91;99089.74;27198;1216;3055273;-66
2021/09/23 05:15:54;;;;;;;9.10;7.30;;;;;;;11.23;69.54;99092.08;27251;1216;3026368;-66
2021/09/23 05:18:23;;;;;;;8.90;6.80;;;;;;;11.09;70.24;99088.67;27262;1216;3026634;-68
2021/09/23 05:20:52;;;;;;;8.70;6.90;;;;;;;10.80;70.29;99089.42;27233;1216;3051500;-67
2021/09/23 05:23:21;;;;;;;8.60;7.30;;;;;;;10.45;71.44;99088.38;27245;1216;3026714;-70
2021/09/23 05:25:51;;;;;;;9.70;7.90;;;;;;;10.30;71.92;99091.59;27254;1216;3050990;-67
2021/09/23 05:28:20;;;;;;;9.30;7.50;;;;;;;10.19;71.75;99095.27;27211;1216;3026073;-69
2021/09/23 05:30:49;;;;;;;8.80;6.10;;;;;;;10.05;72.71;99094.23;27269;1216;3070245;-69
2021/09/23 05:33:18;;;;;;;7.40;5.40;;;;;;;10.58;71.56;99093.64;27236;1216;3025875;-67
2021/09/23 05:35:47;;;;;;;8.60;7.00;;;;;;;11.04;70.01;99087.98;27214;1216;3051832;-65
2021/09/23 05:38:27;;;;;;;7.50;6.70;;;;;;;11.14;69.29;99089.35;27215;1216;3070390;-67
2021/09/23 05:40:59;;;;;;;10.90;6.90;;;;;;;10.96;69.87;99092.19;27240;1216;3025896;-65
2021/09/23 05:43:32;;;;;;;10.90;8.20;;;;;;;10.92;69.79;99090.84;27248;1216;3053868;-67
2021/09/23 05:46:01;;;;;;;9.30;7.60;;;;;;;10.72;70.35;99093.95;27190;1216;3026318;-66
2021/09/23 05:48:30;;;;;;;9.80;7.60;;;;;;;10.62;70.20;99097.08;27215;1216;3052298;-69
2021/09/23 05:51:00;;;;;;;10.60;7.70;;;;;;;10.49;70.89;99100.73;27258;1216;3027379;-70
2021/09/23 05:53:29;;;;;;;7.70;6.30;;;;;;;10.40;71.71;99105.03;27242;1216;3026111;-71
2021/09/23 05:55:59;;;;;;;7.10;5.60;;;;;;;11.04;70.63;99105.43;27220;1216;3052087;-68
2021/09/23 05:58:29;;;;;;;9.30;6.40;;;;;;;11.67;68.49;99102.52;27260;1216;3026132;-67
2021/09/23 06:00:58;;;;;;;8.10;6.80;;;;;;;11.69;67.21;99102.17;27224;1216;3026018;-71
2021/09/23 06:03:27;;;;;;;9.30;7.20;;;;;;;11.47;66.87;99103.23;27253;1209;3054690;-69
2021/09/23 06:05:56;;;;;;;9.90;7.30;;;;;;;11.18;67.71;99100.83;27217;1216;3026100;-67
2021/09/23 06:08:25;;;;;;;11.70;7.80;;;;;;;10.78;68.83;99102.52;27199;1216;3048486;-67
2021/09/23 06:10:54;;;;;;;9.20;8.20;;;;;;;10.48;70.05;99102.89;27271;1216;3025928;-69
2021/09/23 06:13:24;;;;;;;9.70;8.10;;;;;;;10.43;70.35;99101.98;27254;1216;3056803;-66
2021/09/23 06:16:12;;;;;;;10.30;7.90;;;;;;;10.26;70.98;99099.55;27220;1215;3049817;-68
2021/09/23 06:18:46;;;;;;;7.70;5.70;;;;;;;10.20;71.34;99102.73;27258;1216;3025796;-67
2021/09/23 06:21:35;;;;;;;6.40;5.10;;;;;;;10.90;69.87;99097.67;27243;1217;3051393;-68
2021/09/23 06:24:04;;;;;;;9.60;6.70;;;;;;;11.31;68.22;99094.90;27222;1208;3025922;-69
2021/09/23 06:26:53;;;;;;;9.90;7.40;;;;;;;11.43;68.49;99094.58;27211;1217;3055712;-65
2021/09/23 06:29:22;;;;;;;10.10;7.50;;;;;;;11.35;68.86;99092.12;27210;1216;3028432;-65
2021/09/23 06:31:53;;;;;;;11.10;9.00;;;;;;;11.13;69.08;99092.05;27189;1216;3050856;-67
2021/09/23 06:34:23;;;;;;;10.10;7.80;;;;;;;10.86;69.59;99093.35;27226;1216;3026542;-69
2021/09/23 06:36:52;;;;;;;10.50;9.30;;;;;;;10.67;70.34;99093.02;27235;1216;3026888;-68
2021/09/23 06:39:22;;;;;;;14.30;9.80;;;;;;;10.57;71.09;99097.03;27204;1217;3048361;-69
2021/09/23 06:42:01;;;;;;;10.50;7.10;;;;;;;10.57;71.32;99101.08;27211;1216;3055454;-67
2021/09/23 06:44:31;;;;;;;9.20;6.10;;;;;;;11.18;70.39;99096.74;27235;1216;3025744;-67
2021/09/23 06:47:02;;;;;;;8.00;6.50;;;;;;;11.62;67.39;99096.52;27184;1216;3025995;-68
2021/09/23 06:49:39;;;;;;;9.60;6.80;;;;;;;11.65;66.46;99093.91;27244;1216;3050976;-67
2021/09/23 06:52:28;;;;;;;9.10;7.10;;;;;;;11.52;66.55;99098.63;27263;1217;3052359;-66
2021/09/23 06:54:58;;;;;;;9.20;7.90;;;;;;;11.26;67.87;99100.10;27296;1216;3026632;-68
2021/09/23 06:57:29;;;;;;;12.10;7.30;;;;;;;11.10;68.71;99099.80;27245;1216;3051114;-68
2021/09/23 07:00:17;;;;;;;10.00;8.40;;;;;;;11.06;68.80;99103.26;27265;1216;3052173;-67
2021/09/23 07:03:22;;;;;;;8.80;7.50;;;;;;;10.96;68.90;99101.98;27227;1216;3052983;-70
2021/09/23 07:06:18;;;;;;;10.30;8.50;;;;;;;10.79;70.69;99103.81;27247;1216;3058523;-69
2021/09/23 07:09:03;;;;;;;6.60;5.50;;;;;;;10.76;69.76;99104.33;27255;1216;3050754;-67
2021/09/23 07:11:32;;;;;;;7.50;5.90;;;;;;;11.35;69.37;99105.14;27278;1218;3026331;-68
2021/09/23 07:14:03;;;;;;;7.60;6.80;;;;;;;11.86;66.93;99102.40;27274;1216;3056825;-66
2021/09/23 07:16:32;;;;;;;7.70;6.90;;;;;;;11.91;67.28;99104.14;27236;1216;3025965;-65
2021/09/23 07:19:01;;;;;;;8.50;7.30;;;;;;;11.75;68.08;99106.20;27226;1216;3054422;-69
2021/09/23 07:21:30;;;;;;;10.90;8.20;;;;;;;11.70;67.23;99103.16;27235;1218;3026555;-71
2021/09/23 07:24:04;;;;;;;12.10;7.90;;;;;;;11.45;67.14;99101.04;27211;1218;3051728;-66
2021/09/23 07:26:33;;;;;;;13.70;8.60;;;;;;;11.18;68.16;99104.16;27253;1215;3027201;-69
2021/09/23 07:29:02;;;;;;;9.90;8.70;;;;;;;11.10;68.86;99104.39;27229;1208;3026012;-69
2021/09/23 07:31:31;;;;;;;13.10;9.40;;;;;;;10.94;70.26;99107.69;27282;1216;3053870;-65
2021/09/23 07:34:00;;;;;;;7.10;6.40;;;;;;;10.78;70.48;99107.79;27243;1216;3026362;-69
2021/09/23 07:36:30;;;;;;;7.40;6.00;;;;;;;11.29;69.30;99105.83;27259;1216;3026421;-66
2021/09/23 07:39:00;;;;;;;7.90;7.10;;;;;;;11.81;67.68;99101.33;27250;1217;3053994;-68
2021/09/23 07:41:29;;;;;;;10.10;7.40;;;;;;;11.90;67.28;99100.18;27232;1217;3026388;-69
2021/09/23 07:44:00;;;;;;;11.30;7.20;;;;;;;11.64;66.98;99099.23;27264;1216;3026536;-67
2021/09/23 07:46:29;;;;;;;8.90;7.50;;;;;;;11.31;67.75;99097.85;27247;1217;3026382;-66
2021/09/23 07:48:59;;;;;;;11.00;8.20;;;;;;;11.05;68.69;99096.80;27229;1218;3026319;-66
2021/09/23 07:51:28;;;;;;;9.40;8.30;;;;;;;10.77;69.70;99091.36;27210;1216;3058032;-66
2021/09/23 07:54:17;;;;;;;10.80;7.70;;;;;;;10.63;70.61;99091.25;27227;1218;3052328;-70
2021/09/23 07:56:49;;;;;;;10.60;9.10;;;;;;;10.66;70.64;99085.27;27248;1218;3025817;-67
2021/09/23 07:59:34;;;;;;;9.30;6.90;;;;;;;10.74;71.49;99086.48;27230;1218;3053558;-68
2021/09/23 08:02:08;;;;;;;12.70;6.90;;;;;;;11.35;69.57;99086.84;27211;1218;3071070;-67
2021/09/23 08:04:38;;;;;;;7.60;6.20;;;;;;;11.95;68.07;99080.55;27225;1218;3026276;-64
2021/09/23 08:07:07;;;;;;;10.00;6.90;;;;;;;11.92;65.85;99077.58;27234;1217;3026376;-65
2021/09/23 08:09:37;;;;;;;11.20;7.70;;;;;;;11.69;66.69;99076.42;27239;1218;3070282;-68
2021/09/23 08:12:08;;;;;;;15.70;8.40;;;;;;;11.43;67.52;99077.50;27248;1218;3029395;-65
2021/09/23 08:14:41;;;;;;;9.20;7.60;;;;;;;11.36;67.51;99072.22;27224;1216;3026560;-66
2021/09/23 08:17:21;;;;;;;9.30;8.30;;;;;;;11.14;67.72;99072.35;27224;1216;3052524;-69
2021/09/23 08:20:31;;;;;;;15.30;8.80;;;;;;;11.03;69.05;99072.56;27243;1217;3058767;-68
2021/09/23 08:23:02;;;;;;;12.70;9.20;;;;;;;10.92;69.37;99073.69;27224;1216;3027125;-71
2021/09/23 08:25:33;;;;;;;12.50;9.90;;;;;;;10.86;69.48;99074.11;27337;1215;3028467;-67
2021/09/23 08:28:04;;;;;;;9.20;7.50;;;;;;;10.85;70.02;99072.06;27246;1215;3026048;-67
2021/09/23 08:30:36;;;;;;;9.20;7.20;;;;;;;11.39;69.52;99067.52;27221;1217;3026359;-67
2021/09/23 08:33:05;;;;;;;15.70;8.30;;;;;;;11.91;68.02;99065.40;27245;1217;3025747;-70
2021/09/23 08:35:35;;;;;;;10.50;8.40;;;;;;;12.03;68.03;99063.64;27218;1215;3026367;-68
2021/09/23 08:38:05;;;;;;;15.00;9.00;;;;;;;11.95;68.05;99064.20;27265;1215;3026559;-67
2021/09/23 08:40:34;;;;;;;10.40;8.20;;;;;;;11.85;66.90;99061.06;27226;1215;3026138;-64
2021/09/23 08:43:03;;;;;;;11.40;9.80;;;;;;;11.69;67.08;99057.52;27216;1218;3051381;-68
2021/09/23 08:45:32;;;;;;;10.10;9.00;;;;;;;11.58;67.22;99060.35;27250;1218;3026141;-67
2021/09/23 08:48:03;;;;;;;10.30;9.20;;;;;;;11.45;68.28;99060.72;27241;1218;3048759;-66
2021/09/23 08:50:32;;;;;;;11.20;9.80;;;;;;;11.40;68.61;99055.50;27275;1217;3026506;-69
2021/09/23 08:53:01;;;;;;;13.30;9.10;;;;;;;11.29;68.09;99052.60;27305;1215;3067313;-68
2021/09/23 08:55:32;;;;;;;12.10;9.90;;;;;;;11.27;68.71;99056.02;27276;1216;3026356;-67
2021/09/23 08:58:07;;;;;;;8.30;7.00;;;;;;;11.29;68.52;99054.48;27200;1215;3054952;-70
2021/09/23 09:00:38;;;;;;;9.50;7.60;;;;;;;11.83;67.48;99052.40;27275;1215;3026168;-71
2021/09/23 09:03:08;;;;;;;9.20;8.20;;;;;;;12.43;66.48;99051.80;27207;1217;3027714;-68
2021/09/23 09:05:56;;;;;;;11.30;8.60;;;;;;;12.56;64.89;99049.05;27190;1215;3052141;-68
2021/09/23 09:08:45;;;;;;;13.10;9.20;;;;;;;12.42;65.88;99051.98;27255;1215;3055229;-66
2021/09/23 09:11:31;;;;;;;11.40;9.20;;;;;;;12.31;64.67;99049.99;27203;1217;3052025;-64
2021/09/23 09:14:00;;;;;;;15.70;10.90;;;;;;;12.25;64.97;99048.36;27222;1216;3025889;-68
2021/09/23 09:16:30;;;;;;;13.30;10.50;;;;;;;12.17;65.49;99046.13;27256;1216;3052429;-68
2021/09/23 09:19:15;;;;;;;13.20;11.00;;;;;;;12.12;65.81;99049.14;27243;1218;3053726;-66
2021/09/23 09:21:46;;;;;;;12.60;10.40;;;;;;;12.13;64.95;99051.88;27405;1216;3028477;-66
2021/09/23 09:24:18;;;;;;;14.10;11.40;;;;;;;12.02;66.34;99051.73;27270;1218;3027463;-66
2021/09/23 09:26:47;;;;;;;12.60;10.50;;;;;;;11.96;66.95;99053.61;27236;1216;3028744;-63
2021/09/23 09:29:21;;;;;;;;;;;;;;;11.97;65.39;99053.52;27260;1216;3051969;-67
2021/09/23 09:31:50;;;;;;;11.60;10.00;;;;;;;11.72;66.42;99053.39;27250;1217;3026480;-66
2021/09/23 09:34:20;;;;;;;10.90;9.20;;;;;;;11.74;66.54;99051.50;27268;1215;3052697;-67
2021/09/23 09:37:01;;;;;;;10.50;8.70;;;;;;;11.65;65.59;99049.46;27228;1216;3054496;-68
2021/09/23 09:39:34;;;;;;;10.10;8.80;;;;;;;11.61;65.76;99051.36;27245;1217;3027970;-66
2021/09/23 09:42:03;;;;;;;16.00;11.00;;;;;;;11.61;65.68;99053.30;27248;1217;3026537;-68
2021/09/23 09:44:33;;;;;;;10.70;9.30;;;;;;;11.63;65.26;99051.23;27270;1218;3026219;-68
2021/09/23 09:47:04;;;;;;;13.20;9.80;;;;;;;11.54;65.59;99052.91;27317;1217;3025929;-65
2021/09/23 09:49:50;;;;;;;13.80;10.30;;;;;;;11.42;66.39;99053.55;27236;1217;3069065;-68
2021/09/23 09:52:29;;;;;;;10.10;7.70;;;;;;;11.41;66.74;99054.71;27262;1218;3026016;-69
2021/09/23 09:55:08;;;;;;;16.00;8.60;;;;;;;11.61;65.83;99052.23;27279;1215;3051758;-69
2021/09/23 09:57:43;;;;;;;16.70;9.30;;;;;;;11.99;65.61;99053.23;27247;1218;3052687;-68
2021/09/23 10:00:13;;;;;;;13.20;9.70;;;;;;;12.19;65.01;99055.99;27210;1221;3056236;-69
2021/09/23 10:02:57;;;;;;;12.50;9.80;;;;;;;12.09;65.69;99049.84;27219;1216;3049071;-67
2021/09/23 10:05:32;;;;;;;12.90;9.90;;;;;;;12.09;65.45;99059.55;27210;1218;3053149;-71
2021/09/23 10:08:21;;;;;;;11.70;8.30;;;;;;;12.04;64.94;99057.42;27241;1218;3053500;-67
2021/09/23 10:10:50;;;;;;;11.30;9.70;;;;;;;11.89;65.32;99060.23;27295;1216;3025718;-67
2021/09/23 10:13:41;;;;;;;11.90;9.40;;;;;;;11.74;65.87;99057.63;27262;1220;3053025;-67
2021/09/23 10:16:11;;;;;;;12.50;9.70;;;;;;;11.70;66.69;99057.73;27273;1216;3027097;-67
2021/09/23 10:19:00;;;;;;;11.80;9.40;;;;;;;11.60;67.08;99063.54;27281;1219;3069908;-67
2021/09/23 10:21:29;;;;;;;13.40;10.40;;;;;;;11.57;67.46;99063.57;27263;1210;3026301;-69
2021/09/23 10:24:09;;;;;;;15.30;11.70;;;;;;;11.66;66.38;99059.61;27264;1216;3053106;-69
2021/09/23 10:26:39;;;;;;;12.70;11.10;;;;;;;11.65;66.20;99061.61;27216;1216;3026382;-68
2021/09/23 10:29:12;;;;;;;;;;;;;;;11.56;66.26;99063.99;27285;1216;3047874;-69
2021/09/23 10:31:43;;;;;;;13.00;9.40;;;;;;;12.04;65.33;99063.56;27233;1219;3026965;-69
2021/09/23 10:34:13;;;;;;;12.90;10.70;;;;;;;12.73;63.13;99057.60;27228;1216;3067665;-68
2021/09/23 10:36:42;;;;;;;16.10;12.10;;;;;;;12.86;62.43;99061.11;27263;1219;3028856;-68
2021/09/23 10:39:11;;;;;;;14.10;11.40;;;;;;;12.80;62.15;99063.77;27286;1216;3050501;-69
2021/09/23 10:41:56;;;;;;;12.60;10.70;;;;;;;12.52;62.74;99060.73;27280;1216;3070738;-68
2021/09/23 10:44:27;;;;;;;15.10;10.70;;;;;;;12.42;63.24;99062.02;27234;1217;3026754;-71
2021/09/23 10:47:01;;;;;;;14.80;12.00;;;;;;;12.16;64.11;99061.64;27254;1216;3053729;-72
2021/09/23 10:49:34;;;;;;;18.10;13.50;;;;;;;11.98;64.75;99064.31;27254;1220;3028777;-66
2021/09/23 10:52:04;;;;;;;14.70;11.60;;;;;;;11.83;65.49;99069.43;27242;1216;3025984;-70
2021/09/23 10:54:35;;;;;;;14.20;10.40;;;;;;;11.81;65.46;99069.60;27218;1215;3027191;-68
2021/09/23 10:57:04;;;;;;;13.20;10.30;;;;;;;11.65;65.74;99067.77;27257;1218;3026765;-67
2021/09/23 10:59:33;;;;;;;10.70;8.80;;;;;;;11.62;65.48;99070.44;27268;1218;3050835;-65
2021/09/23 11:02:21;;;;;;;10.00;8.50;;;;;;;11.33;66.32;99075.07;27319;1217;3026532;-69
2021/09/23 11:04:57;;;;;;;10.60;9.00;;;;;;;11.18;67.58;99078.41;27197;1210;3054846;-69
2021/09/23 11:07:31;;;;;;;8.40;6.20;;;;;;;11.03;68.73;99080.80;27252;1216;3060566;-68
2021/09/23 11:10:11;;;;;;;7.40;6.40;;;;;;;11.56;67.61;99080.83;27203;1216;3051550;-71
2021/09/23 11:12:42;;;;;;;17.20;7.40;;;;;;;12.23;65.35;99076.73;27238;1219;3054999;-67
2021/09/23 11:15:12;;;;;;;10.20;7.10;;;;;;;12.10;65.40;99072.98;27285;1216;3026302;-66
2021/09/23 11:17:42;;;;;;;12.90;8.80;;;;;;;12.02;65.61;99073.52;27270;1216;3026323;-70
2021/09/23 11:20:47;;;;;;;14.70;10.10;;;;;;;11.65;66.22;99073.86;27272;1218;3026603;-67
2021/09/23 11:23:16;;;;;;;13.80;9.10;;;;;;;11.34;67.40;99073.98;27243;1216;3054274;-67
2021/09/23 11:25:48;;;;;;;15.70;10.30;;;;;;;11.01;69.02;99079.01;27263;1217;3026759;-68
2021/09/23 11:28:19;;;;;;;15.70;10.80;;;;;;;10.88;69.63;99085.72;27338;1217;3056300;-68
2021/09/23 11:30:52;;;;;;;15.60;10.90;;;;;;;10.81;70.39;99083.20;27256;1216;3026226;-69
2021/09/23 11:33:42;;;;;;;11.70;8.20;;;;;;;10.83;70.64;99081.63;27284;1216;3054871;-71
2021/09/23 11:36:14;;;;;;;12.00;8.80;;;;;;;11.45;69.17;99079.83;27304;1216;3026210;-68
2021/09/23 11:38:44;;;;;;;13.20;8.50;;;;;;;11.88;67.39;99078.23;27364;1216;3026859;-69
2021/09/23 11:41:13;;;;;;;23.60;12.90;;;;;;;11.75;67.20;99078.30;27524;1216;3028221;-68
2021/09/23 11:43:46;;;;;;;23.10;13.00;;;;;;;11.53;67.41;99077.90;27254;1216;3053454;-67
2021/09/23 11:46:20;;;;;;;26.10;15.60;;;;;;;11.31;67.95;99080.46;27233;1216;3026367;-68